• Join FlightAware (Why Join?)
  • Login
  • US Flag 
04:55PM EDT


 

Airport Tracker/Info


-or-


 

Live Flight TrackerFlight Track Log ✈ PDT4314 ✈ 04-Sep-2013 ✈ KBGM - KPHL

Flight Track Log - Related Links

Times and Time Zones

All times are in EDT time to prevent confusion due to time zone crossing. See the PDT4314 flight status page for this flight to view local times or setup timezone preferences in your user account.

Time Position Orientation Groundspeed Altitude Reporting Facility
EDT Latitude Longitude Course Direction KTS MPH feet Rate Location/Type
06:10PM 41.9925 -75.9091 180° South  Level Estimated
06:11PM 41.9371 -75.9146 184° South  Level FlightAware Approximate
06:12PM 41.8816 -75.9202 184° South  Level FlightAware Approximate
06:13PM 41.8262 -75.9257 184° South  Level FlightAware Approximate
06:14PM 41.7708 -75.9313 184° South  Level FlightAware Approximate
06:15PM 41.7173 -75.9112 154° Southeast  Level Estimated
06:16PM 41.6637 -75.8912 160° South  Level Estimated
06:17PM 41.6102 -75.8712 159° South  Level Estimated
06:18PM 41.5601 -75.8389 154° Southeast  Level FlightAware Approximate
06:19PM 41.5065 -75.8194 153° Southeast  Level Estimated
06:20PM 41.4529 -75.7999 161° South  Level Estimated
06:21PM 41.4026 -75.7683 155° Southeast  Level FlightAware Approximate
06:22PM 41.3523 -75.7368 155° Southeast  Level FlightAware Approximate
06:23PM 41.3020 -75.7054 155° Southeast  Level FlightAware Approximate
06:24PM 41.2480 -75.6875 162° South  Level Estimated
06:25PM 41.1959 -75.6620 160° South  Level FlightAware Approximate
06:26PM 41.1437 -75.6365 160° South  Level FlightAware Approximate
06:27PM 41.0915 -75.6111 160° South  Level FlightAware Approximate
06:27PM 40.9167 -75.5333 160° South 251 289 8,100  Level Philadelphia TRACON
06:28PM 41.0393 -75.5858 160° South  Level FlightAware Approximate
06:28PM 40.8667 -75.5167 166° South 251 289 8,100  Level Philadelphia TRACON
06:29PM 40.9851 -75.5695 159° South  Level Estimated
06:29PM 40.8000 -75.4833 159° South 252 290 8,100  Level Philadelphia TRACON
06:30PM 40.9309 -75.5532 163° South  Level Estimated
06:30PM 40.7333 -75.4500 159° South 260 299 7,400  Level Philadelphia TRACON
06:31PM 40.8787 -75.5280 160° South  Level FlightAware Approximate
06:31PM 40.6500 -75.4667 189° South 272 313 6,500  Level Philadelphia TRACON
06:32PM 40.8265 -75.5028 160° South  Level FlightAware Approximate
06:32PM 40.5833 -75.4833 191° South 265 305 5,400  Level Philadelphia TRACON
06:33PM 40.7530 -75.4675 160° South  Level FlightAware Approximate
06:33PM 40.5000 -75.5000 189° South 247 284 5,000  Level Philadelphia TRACON
06:34PM 40.4500 -75.5167 194° South 235 270 5,000  Level Philadelphia TRACON
06:35PM 40.4000 -75.4833 153° Southeast 245 282 5,000  Level Philadelphia TRACON
06:36PM 40.3500 -75.4333 143° Southeast 240 276 5,000  Level Philadelphia TRACON
06:37PM 40.2833 -75.3833 150° Southeast 240 276 5,000  Level Philadelphia TRACON
06:38PM 40.2333 -75.3167 134° Southeast 233 268 5,000 -60 Level Philadelphia TRACON
06:39PM 40.1833 -75.2667 143° Southeast 237 273 4,900 -480 Descending Philadelphia TRACON
06:40PM 40.1167 -75.2500 169° South 214 246 4,100 -480 Descending Philadelphia TRACON
06:41PM 40.0667 -75.2333 166° South 209 241 4,000 -60 Descending Philadelphia TRACON
06:42PM 40.0167 -75.2000 153° Southeast 219 252 4,000  Level Philadelphia TRACON
06:43PM 39.9500 -75.1833 169° South 221 254 4,000  Level Philadelphia TRACON
06:44PM 39.8833 -75.1500 159° South 222 255 4,000 -480 Level Philadelphia TRACON
06:45PM 39.8167 -75.1333 169° South 207 238 3,100 -540 Descending Philadelphia TRACON
06:46PM 39.7833 -75.1167 159° South 180 207 3,000 -60 Descending Philadelphia TRACON
06:47PM 39.7333 -75.1000 166° South 186 214 3,000 -480 Level Philadelphia TRACON
06:48PM 39.7167 -75.1333 237° Southwest 171 197 2,100 -660 Descending Philadelphia TRACON
06:49PM 39.7500 -75.1667 322° Northwest 167 192 1,800 -300 Descending Philadelphia TRACON
06:50PM 39.8000 -75.2000 333° Northwest 170 196 1,500 -420 Descending Philadelphia TRACON
06:51PM 39.8333 -75.2167 339° North 123 142 1,000 -540 Descending Philadelphia TRACON